AirNav   Pilot Hours Calculator
 
 1376 users online  

3OI9 V J S Heliport
Pepper Pike, Ohio, USA

GOING TO PEPPER PIKE?


FAA INFORMATION EFFECTIVE 25 MARCH 2021

Location

FAA Identifier: 3OI9
Lat/Long: 41-28-35.1910N 081-27-57.4260W
41-28.586517N 081-27.957100W
41.4764419,-81.4659517
(estimated)
Elevation: 1050 ft. / 320 m (estimated)
Variation: 07W (1985)
Time zone: UTC -4 (UTC -5 during Standard Time)
Zip code: 44124

Heliport Operations

Heliport use: Private use, PERSONAL USE.
Activation date: 03/1981
Control tower: no
ARTCC: CLEVELAND CENTER
FSS: CLEVELAND FLIGHT SERVICE STATION
Attendance: UNATNDD
Wind indicator: no
Segmented circle: no

Heliport Communications

WX AWOS-3 at CGF (5 nm N): 119.950 (216-289-4113)
WX ASOS at BKL (10 nm W): PHONE 216-241-6904
WX AWOS-3PT at LNN (13 nm N): 119.225 (440-942-0809)
WX ASOS at CLE (18 nm W): PHONE 216-416-2729
WX AWOS-3 at POV (19 nm SE): 118.675 (330-298-9353)
WX AWOS-2 at 1G3 (20 nm S): 119.15 (330-346-1497)

Nearby radio navigation aids

VOR radial/distance  VOR name  Freq  Var
CXRr265/13.8CHARDON VOR/DME112.7005W
ACOr336/25.1AKRON VOR/DME114.4004W
DJBr082/32.1DRYER VOR/DME113.6005W
JFNr247/36.4JEFFERSON VOR/DME115.2005W
YNGr289/36.7YOUNGSTOWN VORTAC109.0005W

 
NDB name  Hdg/Dist  Freq  Var  ID
LAKELAND206/13.026308WLQL .-.. --.- .-..

Heliport Services

Runway Information

Helipad H1

Dimensions: 80 x 80 ft. / 24 x 24 m
Surface: turf
Latitude: 41-28.586517N
Longitude: 081-27.957100W
Elevation: 1050.0 ft.
Traffic pattern: leftleft

Heliport Ownership and Management from official FAA records

Ownership: Privately-owned
Owner: VICTOR J. SCARAVILLI
3007 KERSDALE RD
PEPPER PIKE, OH 44124
Phone (216) 831-0848
Manager: VICTOR J. SCARAVILLI
3007 KERSDALE RD
PEPPER PIKE, OH 44124
Phone (216) 831-0848

Heliport Operational Statistics

Aircraft based on the field: 1
Helicopters: 1
    

Additional Remarks

NMRS TREES INVOF OF HELIPORT.
FOR CD CTC CLEVELAND APCH AT 216-352-2323

Instrument Procedures

There are no published instrument procedures at 3OI9.

Some nearby airports with instrument procedures:

KCGF - Cuyahoga County Airport (5 nm N)
KBKL - Burke Lakefront Airport (10 nm W)
KLNN - Lake CountyExecutive Airport (13 nm N)
2G1 - Concord Airpark (17 nm NE)
KCLE - Cleveland-Hopkins International Airport (18 nm W)
7G8 - Geauga County Airport (18 nm E)
KPOV - Portage County Airport (19 nm SE)
1G3 - Kent State University Airport (20 nm S)
 
Loc | Ops | Rwys | IFR | FBO | Links
Com | Nav | Svcs | Stats | Notes
Area around 3OI9 (V J S Heliport)
 
Road maps at: MapQuest Bing Google
 
Aerial photo
No photo
 
Sectional chart

 
Airport distance calculator
Flying to V J S Heliport? Find the distance to fly.

From to 3OI9

Sunrise and sunset
Times for 12-Apr-2021
 Local
(UTC-4)
 Zulu
(UTC)
Morning civil twilight06:2310:23
Sunrise06:5210:52
Sunset20:0200:02
Evening civil twilight20:3000:30

Current date and time
Zulu (UTC)  12-Apr-2021 21:36:05
Local (UTC-4)  12-Apr-2021 17:36:05
 
METAR
KCGF 
5nm N 
122045Z 30009KT 10SM SCT013 SCT060 12/09 A2977
KBKL 
10nm W 
122053Z 29004KT 9SM OVC075 12/09 A2977 RMK AO2 SLP081 T01170089 53014
KLNN 
12nm N 
122115Z AUTO 28008KT 10SM BKN055 13/08 A2978 RMK AO1 T01270076
KCLE 
18nm W 
122051Z 29010KT 10SM SCT030 BKN200 15/08 A2975 RMK AO2 SLP091 60000 T01500078 53018
KPOV 
19nm SE 
122115Z AUTO 28004KT 10SM SCT029 BKN036 BKN060 11/09 A2977 RMK AO2 P0003 T01130087 PWINO
TAF
KCLE 
18nm W 
121741Z 1218/1324 29007KT P6SM -SHRA BKN025 TEMPO 1218/1219 BKN015 FM122000 30008KT P6SM VCSH SCT025 BKN060 FM130400 25005KT 5SM -SHRA BKN030 FM130900 27006KT P6SM FEW250
NOTAMs
Click for the latest NOTAMs
NOTAMs are issued by the DoD/FAA and will open in a separate window not controlled by AirNav.

 

 
 

Would you like to see your business listed on this page?

 If your business provides an interesting product or service to pilots, flight crews, aircraft, or users of the V J S Heliport, you should consider listing it here.  To start the listing process, click on the button below
 
Add a business
 

Other Pages about V J S Heliport

Update a link
 
Copyright © AirNav, LLC. All rights reserved. Privacy Policy  Contact